Time;durP1;ratioP1;P1;durP2;ratioP2;P2;SDS_P1;SDS_P2;PMS_P1;PMS_P2;Temp;Humidity;BMP_temperature;BMP_pressure;BME280_temperature;BME280_humidity;BME280_pressure;Samples;Min_cycle;Max_cycle;Signal;HPM_P1;HPM_P2
2023/11/21 00:01:48;;;;;;;7.10;1.20;;;7.10;99.90;;;;;;5055117;28;20036;-67
2023/11/21 00:04:20;;;;;;;4.28;1.20;;;7.10;99.90;;;;;;5052754;28;20515;-65
2023/11/21 00:06:52;;;;;;;4.32;1.15;;;7.10;99.90;;;;;;5049252;28;20072;-66
2023/11/21 00:09:19;;;;;;;6.63;1.17;;;7.10;99.90;;;;;;5056383;28;20041;-67
2023/11/21 00:11:51;;;;;;;4.25;1.05;;;7.10;99.90;;;;;;5041736;28;20133;-66
2023/11/21 00:14:23;;;;;;;4.05;0.90;;;7.00;99.90;;;;;;5055250;28;20127;-68
2023/11/21 00:16:55;;;;;;;2.90;0.57;;;7.00;99.90;;;;;;5041870;28;20784;-66
2023/11/21 00:19:27;;;;;;;6.72;1.00;;;7.00;99.90;;;;;;5052458;28;20060;-67
2023/11/21 00:21:59;;;;;;;3.55;1.35;;;7.00;99.90;;;;;;5040808;28;20100;-67
2023/11/21 00:24:31;;;;;;;3.17;1.30;;;7.00;99.90;;;;;;5049996;28;20256;-67
2023/11/21 00:27:03;;;;;;;4.28;1.05;;;6.90;99.90;;;;;;5051812;28;20037;-67
2023/11/21 00:29:35;;;;;;;5.82;1.48;;;6.90;99.90;;;;;;5060246;28;20385;-67
2023/11/21 00:32:07;;;;;;;6.55;1.23;;;7.00;99.90;;;;;;5053408;28;20040;-67
2023/11/21 00:34:40;;;;;;;5.55;0.98;;;7.00;99.90;;;;;;5060578;28;20045;-67
2023/11/21 00:37:07;;;;;;;6.15;1.10;;;7.00;99.90;;;;;;5055455;28;20041;-67
2023/11/21 00:39:39;;;;;;;5.10;1.50;;;7.00;99.90;;;;;;5055613;28;20041;-67
2023/11/21 00:42:07;;;;;;;6.53;1.23;;;7.10;99.90;;;;;;5050960;28;20057;-68
2023/11/21 00:44:39;;;;;;;7.60;1.35;;;7.10;99.90;;;;;;5054303;28;20058;-67
2023/11/21 00:47:06;;;;;;;6.10;1.13;;;7.10;99.90;;;;;;5056307;28;20145;-66
2023/11/21 00:49:39;;;;;;;4.40;1.20;;;7.10;99.90;;;;;;5056318;28;20144;-66
2023/11/21 00:52:12;;;;;;;6.53;1.40;;;7.00;99.90;;;;;;5042232;28;20073;-66
2023/11/21 00:54:44;;;;;;;5.88;1.25;;;7.00;99.90;;;;;;5054946;28;20040;-66
2023/11/21 00:57:12;;;;;;;7.15;1.48;;;7.00;99.90;;;;;;5077205;28;20037;-66
2023/11/21 00:59:44;;;;;;;5.68;1.15;;;7.00;99.90;;;;;;5048880;28;20497;-66
2023/11/21 01:02:16;;;;;;;3.42;1.63;;;7.00;99.90;;;;;;5040636;28;20041;-66
2023/11/21 01:04:48;;;;;;;5.22;1.35;;;6.90;99.90;;;;;;5071903;28;20045;-67
2023/11/21 01:07:20;;;;;;;4.63;1.58;;;6.90;99.90;;;;;;5054949;28;20139;-67
2023/11/21 01:09:52;;;;;;;5.63;1.10;;;6.90;99.90;;;;;;5069808;28;20049;-67
2023/11/21 01:12:24;;;;;;;6.35;1.80;;;6.80;99.90;;;;;;5059037;28;20051;-66
2023/11/21 01:15:00;;;;;;;3.95;1.38;;;6.80;99.90;;;;;;5047627;28;20041;-67
2023/11/21 01:17:27;;;;;;;4.70;1.23;;;6.80;99.90;;;;;;5049884;28;20041;-67
2023/11/21 01:19:59;;;;;;;4.55;1.10;;;6.80;99.90;;;;;;5033363;28;20128;-67
2023/11/21 01:22:30;;;;;;;6.30;1.35;;;6.80;99.90;;;;;;5050646;28;20472;-67
2023/11/21 01:25:04;;;;;;;2.95;0.82;;;6.80;99.90;;;;;;5050485;28;20044;-66
2023/11/21 01:27:36;;;;;;;;;;;6.80;99.90;;;;;;5052272;28;20519;-66
2023/11/21 01:30:04;;;;;;;5.03;0.90;;;6.80;99.90;;;;;;5054629;28;20308;-66
2023/11/21 01:32:37;;;;;;;4.40;1.05;;;6.80;99.90;;;;;;5061789;28;20469;-67
2023/11/21 01:35:06;;;;;;;3.33;1.00;;;6.70;99.90;;;;;;5054465;28;20037;-67
2023/11/21 01:37:38;;;;;;;5.97;1.27;;;6.80;99.90;;;;;;5058578;28;20051;-66
2023/11/21 01:40:13;;;;;;;5.13;1.23;;;6.70;99.90;;;;;;5053349;28;20048;-67
2023/11/21 01:42:46;;;;;;;3.92;1.00;;;6.70;99.90;;;;;;5039587;28;20040;-66
2023/11/21 01:45:18;;;;;;;8.30;1.67;;;6.70;99.90;;;;;;5059946;28;20052;-67
2023/11/21 01:47:51;;;;;;;6.63;1.10;;;6.70;99.90;;;;;;5060800;28;20041;-67
2023/11/21 01:50:18;;;;;;;5.03;1.30;;;6.70;99.90;;;;;;5046030;28;20041;-67
2023/11/21 01:52:51;;;;;;;4.28;1.17;;;6.70;99.90;;;;;;5050555;28;20107;-66
2023/11/21 01:55:23;;;;;;;4.70;1.80;;;6.70;99.90;;;;;;5053800;28;20516;-67
2023/11/21 01:57:50;;;;;;;4.13;1.20;;;6.70;99.90;;;;;;5051734;28;20319;-66
2023/11/21 02:00:19;;;;;;;4.40;0.98;;;6.70;99.90;;;;;;5052387;28;20469;-67
2023/11/21 02:02:51;;;;;;;3.20;1.20;;;6.70;99.90;;;;;;5055651;28;20045;-67
2023/11/21 02:05:23;;;;;;;4.28;0.90;;;6.60;99.90;;;;;;5057272;28;20052;-67
2023/11/21 02:07:56;;;;;;;2.25;1.10;;;6.60;99.90;;;;;;5071932;28;20049;-67
2023/11/21 02:10:29;;;;;;;2.50;1.00;;;6.60;99.90;;;;;;5057278;28;20051;-69
2023/11/21 02:13:02;;;;;;;6.97;2.88;;;6.60;99.90;;;;;;5040250;28;20049;-67
2023/11/21 02:15:34;;;;;;;6.15;2.53;;;6.60;99.90;;;;;;5051634;28;20044;-67
2023/11/21 02:18:06;;;;;;;5.78;1.58;;;6.50;99.90;;;;;;5036098;28;20041;-66
2023/11/21 02:20:38;;;;;;;6.22;1.70;;;6.60;99.90;;;;;;5038758;28;20044;-66
2023/11/21 02:23:10;;;;;;;6.47;1.80;;;6.60;99.90;;;;;;5040445;28;20712;-66
2023/11/21 02:25:43;;;;;;;5.03;2.00;;;6.60;99.90;;;;;;5069226;28;20604;-66
2023/11/21 02:28:25;;;;;;;9.40;1.63;;;6.60;99.90;;;;;;5051639;28;20040;-67
2023/11/21 02:30:58;;;;;;;6.05;1.63;;;6.70;99.90;;;;;;5057532;28;20048;-67
2023/11/21 02:33:33;;;;;;;;;;;6.60;99.90;;;;;;5051515;28;20048;-67
2023/11/21 02:36:06;;;;;;;2.33;1.00;;;6.70;99.90;;;;;;5038816;28;19956;-67
2023/11/21 02:38:33;;;;;;;5.00;1.17;;;6.70;99.90;;;;;;5054479;28;20063;-67
2023/11/21 02:41:04;;;;;;;3.78;1.20;;;6.70;99.90;;;;;;5052653;28;20045;-67
2023/11/21 02:43:38;;;;;;;4.60;1.00;;;6.70;99.90;;;;;;5057736;28;20118;-66
2023/11/21 02:46:05;;;;;;;4.15;1.20;;;6.70;99.90;;;;;;5059743;28;20036;-67
2023/11/21 02:48:39;;;;;;;3.38;1.48;;;6.70;99.90;;;;;;5031782;28;20543;-67
2023/11/21 02:51:11;;;;;;;3.90;1.10;;;6.70;99.90;;;;;;5065903;28;20045;-67
2023/11/21 02:53:43;;;;;;;3.15;1.10;;;6.70;99.90;;;;;;5057556;28;20459;-67
2023/11/21 02:56:15;;;;;;;3.05;1.00;;;6.70;99.90;;;;;;5054398;28;20048;-66
2023/11/21 02:58:47;;;;;;;5.78;1.63;;;6.70;99.90;;;;;;5049171;28;20131;-66
2023/11/21 03:01:19;;;;;;;3.38;1.20;;;6.80;99.90;;;;;;5055095;28;20052;-67
2023/11/21 03:03:47;;;;;;;4.15;1.45;;;6.80;99.90;;;;;;5062644;28;20535;-66
2023/11/21 03:06:14;;;;;;;8.65;1.60;;;6.80;99.90;;;;;;5059684;28;20073;-66
2023/11/21 03:08:47;;;;;;;5.15;0.98;;;6.80;99.90;;;;;;5060153;28;20718;-66
2023/11/21 03:11:19;;;;;;;2.65;0.63;;;6.80;99.90;;;;;;5033948;28;20041;-67
2023/11/21 03:13:51;;;;;;;4.55;1.42;;;6.80;99.90;;;;;;5058890;28;20579;-66
2023/11/21 03:16:23;;;;;;;1.60;0.95;;;6.80;99.90;;;;;;5071212;28;20530;-67
2023/11/21 03:18:50;;;;;;;1.83;0.95;;;6.80;99.90;;;;;;5059610;28;20043;-67
2023/11/21 03:21:23;;;;;;;3.03;1.17;;;6.80;99.90;;;;;;5048004;28;20045;-66
2023/11/21 03:23:56;;;;;;;4.30;1.05;;;6.70;99.90;;;;;;5051647;28;20037;-66
2023/11/21 03:26:28;;;;;;;2.83;0.82;;;6.80;99.90;;;;;;5048779;28;20142;-66
2023/11/21 03:28:55;;;;;;;3.05;0.60;;;6.80;99.90;;;;;;5058184;28;20109;-66
2023/11/21 03:31:23;;;;;;;7.10;1.15;;;6.70;99.90;;;;;;5053278;28;20301;-67
2023/11/21 03:33:54;;;;;;;4.72;0.80;;;6.70;99.90;;;;;;5056592;28;20055;-66
2023/11/21 03:36:27;;;;;;;2.00;0.60;;;6.70;99.90;;;;;;5059032;28;20595;-66
2023/11/21 03:38:58;;;;;;;4.43;0.98;;;6.70;99.90;;;;;;5057675;28;20040;-67
2023/11/21 03:41:30;;;;;;;2.38;0.80;;;6.70;99.90;;;;;;5058451;28;20120;-67
2023/11/21 03:43:58;;;;;;;4.55;1.10;;;6.60;99.90;;;;;;5059345;28;20039;-66
2023/11/21 03:46:29;;;;;;;3.13;0.77;;;6.60;99.90;;;;;;5050552;28;20041;-67
2023/11/21 03:48:56;;;;;;;2.85;1.20;;;6.60;99.90;;;;;;5055430;28;20045;-67
2023/11/21 03:51:28;;;;;;;3.78;1.10;;;6.50;99.90;;;;;;5052377;28;20075;-67
2023/11/21 03:54:01;;;;;;;3.30;0.90;;;6.50;99.90;;;;;;5059359;28;20105;-67
2023/11/21 03:56:29;;;;;;;2.55;0.85;;;6.40;99.90;;;;;;5047616;28;20034;-66
2023/11/21 03:59:01;;;;;;;3.75;0.90;;;6.40;99.90;;;;;;5052413;28;20032;-67
2023/11/21 04:01:33;;;;;;;3.45;0.80;;;6.40;99.90;;;;;;5054064;28;20568;-66
2023/11/21 04:04:05;;;;;;;3.28;1.48;;;6.40;99.90;;;;;;5065163;28;20047;-66
2023/11/21 04:06:37;;;;;;;3.78;1.20;;;6.40;99.90;;;;;;5054168;28;20131;-67
2023/11/21 04:09:09;;;;;;;5.57;1.17;;;6.40;99.90;;;;;;5057510;28;20047;-67
2023/11/21 04:11:42;;;;;;;1.80;0.77;;;6.40;99.90;;;;;;5059336;28;20790;-67
2023/11/21 04:14:14;;;;;;;3.38;1.00;;;6.40;99.90;;;;;;5042313;28;20086;-67
2023/11/21 04:16:46;;;;;;;3.88;0.77;;;6.40;99.90;;;;;;5048571;28;20128;-66
2023/11/21 04:19:18;;;;;;;3.05;0.73;;;6.40;99.90;;;;;;5057609;28;20052;-66
2023/11/21 04:21:50;;;;;;;3.05;0.95;;;6.40;99.90;;;;;;5040575;28;20061;-67
2023/11/21 04:24:22;;;;;;;4.60;1.65;;;6.40;99.90;;;;;;5047947;28;20073;-68
2023/11/21 04:26:55;;;;;;;4.03;0.95;;;6.40;99.90;;;;;;5051121;28;20127;-67
2023/11/21 04:29:27;;;;;;;3.55;0.88;;;6.40;99.90;;;;;;5069403;28;20531;-67
2023/11/21 04:31:59;;;;;;;3.40;1.98;;;6.40;99.90;;;;;;5040632;28;20045;-67
2023/11/21 04:34:26;;;;;;;2.38;1.10;;;6.40;99.90;;;;;;5052421;28;20046;-67
2023/11/21 04:36:58;;;;;;;3.10;1.20;;;6.40;99.90;;;;;;5060042;28;20037;-67
2023/11/21 04:39:30;;;;;;;2.22;0.82;;;6.40;99.90;;;;;;5062823;28;20040;-67
2023/11/21 04:41:57;;;;;;;1.88;0.98;;;6.30;99.90;;;;;;5058547;28;20041;-67
2023/11/21 04:44:29;;;;;;;2.75;0.80;;;6.30;99.90;;;;;;5059003;28;20547;-66
2023/11/21 04:46:56;;;;;;;2.80;1.27;;;6.30;99.90;;;;;;5054791;28;20120;-67
2023/11/21 04:49:28;;;;;;;3.70;1.05;;;6.30;99.90;;;;;;5053634;28;20052;-67
2023/11/21 04:52:01;;;;;;;2.83;0.68;;;6.30;99.90;;;;;;5054026;28;20569;-67
2023/11/21 04:54:33;;;;;;;2.65;0.80;;;6.40;99.90;;;;;;5044120;28;20037;-67
2023/11/21 04:57:05;;;;;;;2.13;0.82;;;6.40;99.90;;;;;;5048388;28;20044;-67
2023/11/21 04:59:34;;;;;;;3.70;0.82;;;6.40;99.90;;;;;;5047796;28;20037;-67
2023/11/21 05:02:06;;;;;;;4.10;0.90;;;6.40;99.90;;;;;;5070615;28;20037;-67
2023/11/21 05:04:38;;;;;;;2.13;0.75;;;6.40;99.90;;;;;;5058066;28;20030;-67
2023/11/21 05:07:05;;;;;;;3.72;1.20;;;6.40;99.90;;;;;;5053630;28;20048;-66
2023/11/21 05:09:40;;;;;;;1.83;0.60;;;6.40;99.90;;;;;;5059565;28;20048;-67
2023/11/21 05:12:07;;;;;;;1.15;0.80;;;6.40;99.90;;;;;;5056974;28;20075;-66
2023/11/21 05:14:39;;;;;;;2.80;0.55;;;6.30;99.90;;;;;;5053934;28;20048;-67
2023/11/21 05:17:11;;;;;;;3.33;0.65;;;6.30;99.90;;;;;;5051236;28;20068;-67
2023/11/21 05:19:45;;;;;;;3.20;1.13;;;6.30;99.90;;;;;;5069075;28;20543;-67
2023/11/21 05:22:17;;;;;;;3.70;0.70;;;6.20;99.90;;;;;;5049800;28;20041;-67
2023/11/21 05:24:44;;;;;;;2.22;0.73;;;6.20;99.90;;;;;;5049216;28;20040;-67
2023/11/21 05:27:16;;;;;;;4.75;0.98;;;6.20;99.90;;;;;;5049456;28;20041;-67
2023/11/21 05:29:48;;;;;;;3.42;1.05;;;6.20;99.90;;;;;;5048685;28;20949;-68
2023/11/21 05:32:14;;;;;;;1.80;0.60;;;6.20;99.90;;;;;;5048328;28;20044;-67
2023/11/21 05:34:46;;;;;;;3.10;0.50;;;6.20;99.90;;;;;;5050744;28;20036;-66
2023/11/21 05:37:18;;;;;;;1.48;0.70;;;6.10;99.90;;;;;;5065828;28;20421;-67
2023/11/21 05:39:50;;;;;;;1.67;0.60;;;6.10;99.90;;;;;;5053334;28;20041;-67
2023/11/21 05:42:23;;;;;;;1.45;0.70;;;6.10;99.90;;;;;;5043152;28;20067;-67
2023/11/21 05:44:55;;;;;;;1.63;0.65;;;6.10;99.90;;;;;;5048773;28;20048;-67
2023/11/21 05:47:26;;;;;;;2.33;0.57;;;6.10;99.90;;;;;;5053958;28;20052;-67
2023/11/21 05:49:58;;;;;;;2.63;0.70;;;6.00;99.90;;;;;;5055859;28;20041;-67
2023/11/21 05:52:32;;;;;;;4.13;0.80;;;6.00;99.90;;;;;;5055510;28;20045;-67
2023/11/21 05:55:07;;;;;;;2.78;0.52;;;6.10;99.90;;;;;;5047225;28;20041;-67
2023/11/21 05:57:40;;;;;;;1.15;0.70;;;6.10;99.90;;;;;;5050603;28;20064;-67
2023/11/21 06:00:25;;;;;;;1.17;0.80;;;6.10;99.90;;;;;;5051893;28;20518;-67
2023/11/21 06:02:57;;;;;;;1.67;0.63;;;6.10;99.90;;;;;;5056875;28;20037;-67
2023/11/21 06:05:30;;;;;;;1.73;0.60;;;6.10;99.90;;;;;;5051523;28;20043;-67
2023/11/21 06:07:58;;;;;;;1.55;0.47;;;6.10;99.90;;;;;;5054645;28;20041;-66
2023/11/21 06:10:25;;;;;;;1.20;0.80;;;6.10;99.90;;;;;;5055917;28;20044;-66
2023/11/21 06:12:52;;;;;;;2.70;0.60;;;6.00;99.90;;;;;;5060181;28;20552;-67
2023/11/21 06:15:22;;;;;;;1.02;0.50;;;6.10;99.90;;;;;;5053177;28;20407;-67
2023/11/21 06:17:54;;;;;;;1.38;0.57;;;6.00;99.90;;;;;;5055170;28;20051;-66
2023/11/21 06:20:22;;;;;;;4.53;4.10;;;6.00;99.90;;;;;;5054406;28;20040;-67
2023/11/21 06:22:54;;;;;;;6.28;1.02;;;6.00;99.90;;;;;;5056658;28;20037;-67
2023/11/21 06:25:27;;;;;;;1.13;0.70;;;5.90;99.90;;;;;;5056428;28;20056;-67
2023/11/21 06:27:59;;;;;;;2.13;0.65;;;5.90;99.90;;;;;;5054095;28;20036;-67
2023/11/21 06:30:30;;;;;;;4.60;0.70;;;5.90;99.90;;;;;;5055438;28;20045;-66
2023/11/21 06:33:02;;;;;;;2.15;0.47;;;5.90;99.90;;;;;;5056188;28;20044;-66
2023/11/21 06:35:34;;;;;;;2.70;0.88;;;6.00;99.90;;;;;;5057874;28;20056;-67
2023/11/21 06:38:06;;;;;;;2.38;0.70;;;5.90;99.90;;;;;;5061668;28;20036;-67
2023/11/21 06:40:38;;;;;;;1.65;0.65;;;5.90;99.90;;;;;;5058232;28;21284;-66
2023/11/21 06:43:10;;;;;;;1.20;0.52;;;5.90;99.90;;;;;;5061514;28;20048;-67
2023/11/21 06:45:43;;;;;;;2.15;0.70;;;5.90;99.90;;;;;;5074776;28;20404;-66
2023/11/21 06:48:15;;;;;;;1.52;0.65;;;5.90;99.90;;;;;;5057976;28;20053;-67
2023/11/21 06:50:47;;;;;;;2.72;0.60;;;5.90;99.90;;;;;;5061163;28;20047;-69
2023/11/21 06:53:19;;;;;;;2.88;0.75;;;6.00;99.90;;;;;;5062393;28;20412;-66
2023/11/21 06:55:51;;;;;;;1.58;0.50;;;6.00;99.90;;;;;;5043156;28;20056;-67
2023/11/21 06:58:23;;;;;;;3.83;1.73;;;6.00;99.90;;;;;;5046227;28;20045;-66
2023/11/21 07:00:55;;;;;;;2.40;0.70;;;6.00;99.90;;;;;;5042094;28;20045;-67
2023/11/21 07:03:27;;;;;;;1.88;0.50;;;6.00;99.90;;;;;;5046064;28;20139;-66
2023/11/21 07:05:54;;;;;;;1.83;0.75;;;6.10;99.90;;;;;;5045946;28;20345;-67
2023/11/21 07:08:26;;;;;;;3.45;1.35;;;6.10;99.90;;;;;;5044188;28;20049;-66
2023/11/21 07:10:59;;;;;;;2.70;0.60;;;6.10;99.90;;;;;;5057569;28;20660;-67
2023/11/21 07:13:26;;;;;;;1.00;0.50;;;6.10;99.90;;;;;;5053347;28;20083;-67
2023/11/21 07:15:53;;;;;;;1.27;0.50;;;6.10;99.90;;;;;;5051739;28;20122;-67
2023/11/21 07:18:25;;;;;;;1.25;0.50;;;6.10;99.90;;;;;;5049283;28;20417;-67
2023/11/21 07:20:52;;;;;;;3.25;0.63;;;6.10;99.90;;;;;;5067481;28;20118;-67
2023/11/21 07:23:24;;;;;;;4.30;0.80;;;6.10;99.90;;;;;;5043986;28;20048;-67
2023/11/21 07:25:55;;;;;;;0.90;0.65;;;6.20;99.90;;;;;;5049122;28;20037;-66
2023/11/21 07:28:28;;;;;;;2.22;0.70;;;6.20;99.90;;;;;;5046515;28;20556;-65
2023/11/21 07:31:00;;;;;;;1.60;0.80;;;6.20;99.90;;;;;;5044828;28;20056;-66
2023/11/21 07:33:31;;;;;;;2.83;0.75;;;6.20;99.90;;;;;;5034138;28;20049;-67
2023/11/21 07:36:03;;;;;;;1.83;0.70;;;6.20;99.90;;;;;;5053008;28;20040;-66
2023/11/21 07:38:35;;;;;;;2.58;0.60;;;6.20;99.90;;;;;;5049952;28;20037;-67
2023/11/21 07:41:10;;;;;;;3.13;1.42;;;6.20;99.90;;;;;;5053968;28;20045;-66
2023/11/21 07:43:42;;;;;;;2.05;0.70;;;6.20;99.90;;;;;;5051574;28;20120;-67
2023/11/21 07:46:14;;;;;;;3.35;0.88;;;6.20;99.90;;;;;;5057373;28;20513;-67
2023/11/21 07:48:46;;;;;;;1.90;0.65;;;6.30;99.90;;;;;;5056167;28;20053;-67
2023/11/21 07:51:18;;;;;;;2.28;0.60;;;6.30;99.90;;;;;;5058123;28;20036;-67
2023/11/21 07:53:50;;;;;;;4.10;0.82;;;6.30;99.90;;;;;;5040952;28;20036;-67
2023/11/21 07:56:22;;;;;;;4.25;0.65;;;6.30;99.90;;;;;;5058767;28;20048;-67
2023/11/21 07:58:54;;;;;;;3.85;0.70;;;6.40;99.90;;;;;;5056399;28;20041;-68
2023/11/21 08:01:27;;;;;;;1.65;0.60;;;6.40;99.90;;;;;;5046022;28;20415;-67
2023/11/21 08:03:56;;;;;;;1.50;0.65;;;6.40;99.90;;;;;;5035510;28;20043;-67
2023/11/21 08:06:25;;;;;;;1.15;0.50;;;6.40;99.90;;;;;;5049785;28;20033;-67
2023/11/21 08:08:57;;;;;;;;;;;6.50;99.90;;;;;;5057453;28;20047;-67
2023/11/21 08:11:31;;;;;;;1.65;0.80;;;6.50;99.90;;;;;;5055867;28;19927;-67
2023/11/21 08:14:03;;;;;;;1.67;0.60;;;6.50;99.90;;;;;;5054574;28;20472;-68
2023/11/21 08:16:35;;;;;;;4.13;1.52;;;6.60;99.90;;;;;;5053543;28;20037;-67
2023/11/21 08:19:09;;;;;;;3.28;0.88;;;6.60;99.90;;;;;;5059226;28;20053;-68
2023/11/21 08:21:41;;;;;;;2.40;0.82;;;6.60;99.90;;;;;;5052244;28;20052;-67
2023/11/21 08:24:13;;;;;;;1.92;0.80;;;6.60;99.90;;;;;;5057274;28;20041;-67
2023/11/21 08:26:44;;;;;;;2.40;0.70;;;6.60;99.90;;;;;;5056224;28;20128;-67
2023/11/21 08:29:16;;;;;;;2.55;0.77;;;6.60;99.90;;;;;;5059533;28;20102;-68
2023/11/21 08:31:46;;;;;;;3.08;0.90;;;6.60;99.90;;;;;;5056334;28;20144;-67
2023/11/21 08:34:14;;;;;;;5.22;0.70;;;6.70;99.90;;;;;;5055739;28;20051;-67
2023/11/21 08:36:46;;;;;;;2.85;0.80;;;6.70;99.90;;;;;;5067524;28;20126;-68
2023/11/21 08:39:19;;;;;;;3.58;0.93;;;6.80;99.90;;;;;;5060377;28;20143;-67
2023/11/21 08:41:51;;;;;;;1.73;0.70;;;6.90;99.90;;;;;;5060906;28;20549;-67
2023/11/21 08:44:23;;;;;;;3.65;0.90;;;6.90;99.90;;;;;;5055249;28;20122;-68
2023/11/21 08:46:55;;;;;;;3.83;1.00;;;7.00;99.90;;;;;;5055932;28;20052;-67
2023/11/21 08:49:22;;;;;;;3.90;0.85;;;7.00;99.90;;;;;;5048389;28;20106;-67
2023/11/21 08:51:55;;;;;;;2.58;0.93;;;7.00;99.90;;;;;;5052242;28;20199;-67
2023/11/21 08:54:22;;;;;;;2.83;0.77;;;7.00;99.90;;;;;;5059296;28;20045;-67
2023/11/21 08:56:54;;;;;;;1.23;0.80;;;7.10;99.90;;;;;;5057487;28;20534;-67
2023/11/21 08:59:26;;;;;;;2.42;0.95;;;7.10;99.90;;;;;;5049985;28;20132;-68
2023/11/21 09:01:53;;;;;;;2.33;1.05;;;7.10;99.90;;;;;;5052377;28;20044;-67
2023/11/21 09:04:20;;;;;;;1.83;0.90;;;7.20;99.90;;;;;;5045436;28;20041;-67
2023/11/21 09:06:52;;;;;;;3.63;1.13;;;7.10;99.90;;;;;;5051182;28;20041;-67
2023/11/21 09:09:24;;;;;;;2.33;0.82;;;7.10;99.90;;;;;;5058696;28;20056;-67
2023/11/21 09:11:51;;;;;;;2.28;1.00;;;7.10;99.90;;;;;;5059102;28;20059;-67
2023/11/21 09:14:18;;;;;;;2.92;0.98;;;7.10;99.90;;;;;;5053563;28;20036;-68
2023/11/21 09:16:50;;;;;;;4.43;1.05;;;7.10;99.90;;;;;;5055709;28;20034;-67
2023/11/21 09:19:17;;;;;;;2.10;1.00;;;7.10;99.90;;;;;;5059423;28;20036;-67
2023/11/21 09:21:49;;;;;;;2.15;0.70;;;7.10;99.90;;;;;;5060114;28;20102;-68
2023/11/21 09:24:20;;;;;;;4.28;1.00;;;7.10;99.90;;;;;;5052269;28;20041;-68
2023/11/21 09:26:47;;;;;;;5.25;0.95;;;7.10;99.90;;;;;;5050377;28;20033;-67
2023/11/21 09:29:19;;;;;;;3.67;1.10;;;7.10;99.90;;;;;;5048264;28;20053;-67
2023/11/21 09:31:46;;;;;;;2.92;1.00;;;7.10;99.90;;;;;;5051695;28;20069;-67
2023/11/21 09:34:18;;;;;;;3.20;1.00;;;7.20;99.90;;;;;;5046836;28;20072;-67
2023/11/21 09:36:50;;;;;;;4.53;1.20;;;7.30;99.90;;;;;;5050264;28;20065;-67
2023/11/21 09:39:22;;;;;;;4.63;1.13;;;7.30;99.90;;;;;;5053817;28;20060;-67
2023/11/21 09:46:06;;;;;;;3.88;1.90;;;7.40;99.90;;;;;;5047578;28;20055;-66
2023/11/21 09:48:35;;;;;;;2.10;0.98;;;7.50;99.90;;;;;;5052787;28;20526;-67
2023/11/21 09:51:08;;;;;;;3.78;1.13;;;7.50;99.90;;;;;;5054322;28;20049;-67
2023/11/21 09:53:44;;;;;;;4.50;1.52;;;7.50;99.90;;;;;;5050556;28;20044;-67
2023/11/21 09:56:19;;;;;;;11.55;2.08;;;7.50;99.90;;;;;;5054992;28;20636;-67
2023/11/21 09:58:53;;;;;;;4.82;1.20;;;7.50;99.90;;;;;;5056897;28;20611;-66
2023/11/21 10:01:26;;;;;;;4.82;1.20;;;7.50;99.90;;;;;;5048895;28;20043;-67
2023/11/21 10:03:59;;;;;;;;;;;7.50;99.90;;;;;;5042261;28;20052;-67
2023/11/21 10:06:32;;;;;;;3.22;1.20;;;7.60;99.90;;;;;;5049088;28;19925;-67
2023/11/21 10:09:11;;;;;;;3.85;1.25;;;7.60;99.90;;;;;;5049858;28;20044;-66
2023/11/21 10:11:42;;;;;;;3.95;1.13;;;7.60;99.90;;;;;;5046183;28;20144;-66
2023/11/21 10:14:18;;;;;;;2.70;1.40;;;7.70;99.90;;;;;;5045141;28;20071;-67
2023/11/21 10:16:51;;;;;;;2.90;1.33;;;7.80;99.90;;;;;;5054450;28;20045;-67
2023/11/21 10:19:24;;;;;;;6.05;1.52;;;7.90;99.90;;;;;;5058601;28;20033;-67
2023/11/21 10:21:59;;;;;;;2.78;1.23;;;8.00;99.90;;;;;;5054678;28;20036;-66
2023/11/21 10:24:27;;;;;;;3.50;1.00;;;8.00;99.90;;;;;;5054896;28;20041;-66
2023/11/21 10:27:01;;;;;;;3.13;0.95;;;8.10;99.90;;;;;;5050820;28;20052;-67
2023/11/21 10:29:35;;;;;;;4.05;1.30;;;8.20;99.90;;;;;;5051672;28;20041;-66
2023/11/21 10:32:07;;;;;;;2.30;1.00;;;8.20;99.90;;;;;;5050450;28;20052;-67
2023/11/21 10:34:41;;;;;;;2.47;1.27;;;8.30;99.90;;;;;;5048637;28;20524;-67
2023/11/21 10:37:13;;;;;;;4.65;1.42;;;8.30;99.90;;;;;;5045160;28;20053;-67
2023/11/21 10:39:40;;;;;;;2.28;1.00;;;8.40;99.90;;;;;;5047071;28;20495;-67
2023/11/21 10:42:10;;;;;;;2.50;1.05;;;8.50;99.90;;;;;;5050806;28;20039;-67
2023/11/21 10:44:43;;;;;;;4.65;1.48;;;8.60;99.90;;;;;;5048890;28;20394;-67
2023/11/21 10:47:18;;;;;;;1.75;1.10;;;8.60;99.90;;;;;;5051209;28;20045;-66
2023/11/21 10:49:53;;;;;;;1.80;1.00;;;8.60;99.90;;;;;;5054343;28;20041;-67
2023/11/21 10:52:27;;;;;;;1.63;1.10;;;8.80;99.90;;;;;;5043205;28;20555;-67
2023/11/21 10:54:59;;;;;;;3.58;0.93;;;8.90;99.90;;;;;;5054772;28;20125;-66
2023/11/21 10:57:31;;;;;;;1.95;0.80;;;9.00;99.90;;;;;;5051308;28;20618;-65
2023/11/21 10:59:58;;;;;;;2.50;1.00;;;9.00;99.90;;;;;;5046352;28;20037;-67
2023/11/21 11:02:32;;;;;;;2.92;0.85;;;9.00;99.90;;;;;;5048981;28;20041;-66
2023/11/21 11:05:00;;;;;;;3.97;2.63;;;9.00;99.90;;;;;;5043574;28;20140;-67
2023/11/21 11:07:36;;;;;;;2.47;1.73;;;9.10;99.90;;;;;;5035973;28;20136;-66
2023/11/21 11:10:14;;;;;;;5.03;3.50;;;9.10;99.90;;;;;;5034916;28;20750;-66
2023/11/21 11:12:47;;;;;;;3.90;1.67;;;9.00;99.90;;;;;;5040328;28;20130;-65
2023/11/21 11:15:16;;;;;;;2.72;1.40;;;9.00;99.90;;;;;;5048148;28;20184;-67
2023/11/21 11:17:48;;;;;;;12.98;8.88;;;8.90;99.90;;;;;;5043509;28;20516;-67
2023/11/21 11:20:17;;;;;;;23.23;13.77;;;8.90;99.90;;;;;;5044017;28;20048;-66
2023/11/21 11:23:07;;;;;;;8.75;5.97;;;9.00;99.90;;;;;;5050568;28;20128;-66
2023/11/21 11:25:58;;;;;;;6.10;2.00;;;9.00;99.90;;;;;;5045689;28;20120;-66
2023/11/21 11:29:08;;;;;;;13.70;8.82;;;8.90;99.90;;;;;;5072184;28;20053;-66
2023/11/21 11:32:22;;;;;;;3.20;1.25;;;8.90;99.90;;;;;;5050465;28;20681;-65
2023/11/21 11:35:03;;;;;;;4.30;1.80;;;8.90;99.90;;;;;;5026159;28;20048;-67
2023/11/21 11:37:35;;;;;;;3.53;1.27;;;8.90;99.90;;;;;;5046201;28;20045;-66
2023/11/21 11:40:08;;;;;;;4.65;1.25;;;9.00;99.90;;;;;;5049894;28;20052;-66
2023/11/21 11:43:04;;;;;;;8.70;3.28;;;8.90;99.90;;;;;;5049273;28;20044;-65
2023/11/21 11:45:41;;;;;;;2.78;1.40;;;9.00;99.90;;;;;;5073665;28;20056;-66
2023/11/21 11:48:15;;;;;;;1.67;0.88;;;9.10;99.90;;;;;;5057645;28;20045;-67
2023/11/21 11:51:04;;;;;;;2.10;1.10;;;9.20;99.90;;;;;;5047378;28;20033;-66
2023/11/21 11:53:39;;;;;;;5.38;1.10;;;9.30;99.90;;;;;;5056181;28;20706;-66
2023/11/21 11:56:20;;;;;;;3.58;1.40;;;9.30;99.90;;;;;;5037744;28;20050;-66
2023/11/21 11:58:57;;;;;;;3.50;1.45;;;9.30;99.90;;;;;;5051108;28;20550;-67
2023/11/21 12:01:30;;;;;;;2.25;1.30;;;9.20;99.90;;;;;;5050514;28;20106;-67
2023/11/21 12:04:20;;;;;;;;;;;9.20;99.90;;;;;;5052828;28;20124;-67
2023/11/21 12:06:56;;;;;;;5.65;2.83;;;9.10;99.90;;;;;;5045634;28;19920;-66
2023/11/21 12:09:24;;;;;;;4.72;2.00;;;9.10;99.90;;;;;;5039793;28;20065;-66
2023/11/21 12:11:59;;;;;;;3.00;1.10;;;9.10;99.90;;;;;;5049352;28;20044;-66
2023/11/21 12:14:26;;;;;;;3.67;1.17;;;9.10;99.90;;;;;;5050255;28;20099;-66
2023/11/21 12:16:58;;;;;;;4.57;2.17;;;9.00;99.90;;;;;;5056494;28;20041;-66
2023/11/21 12:19:31;;;;;;;3.33;1.20;;;9.10;99.90;;;;;;5050949;28;20445;-66
2023/11/21 12:22:03;;;;;;;2.83;1.30;;;9.10;99.90;;;;;;5059343;28;20068;-66
2023/11/21 12:24:30;;;;;;;2.35;1.33;;;9.10;99.90;;;;;;5052812;28;20033;-67
2023/11/21 12:27:02;;;;;;;3.60;1.23;;;9.10;99.90;;;;;;5072839;28;20041;-67
2023/11/21 12:29:30;;;;;;;2.80;1.30;;;9.20;99.90;;;;;;5059203;28;20056;-66
2023/11/21 12:32:04;;;;;;;3.22;1.23;;;9.20;99.90;;;;;;5058878;28;20045;-66
2023/11/21 12:34:36;;;;;;;3.95;1.60;;;9.30;99.90;;;;;;5071681;28;20053;-66
2023/11/21 12:37:07;;;;;;;1.92;1.08;;;9.30;99.90;;;;;;5048560;28;20041;-66
2023/11/21 12:39:39;;;;;;;3.65;1.27;;;9.30;99.90;;;;;;5054229;28;20049;-66
2023/11/21 12:42:11;;;;;;;3.33;1.50;;;9.40;99.90;;;;;;5045287;28;20037;-66
2023/11/21 12:44:47;;;;;;;4.05;2.30;;;9.40;99.90;;;;;;5045314;28;20128;-68
2023/11/21 12:47:18;;;;;;;6.25;5.28;;;9.50;99.90;;;;;;5047501;28;20033;-66
2023/11/21 12:49:44;;;;;;;6.22;5.53;;;9.50;99.90;;;;;;5047604;28;20041;-66
2023/11/21 12:52:17;;;;;;;5.75;2.90;;;9.60;99.90;;;;;;5052059;28;20044;-66
2023/11/21 12:54:49;;;;;;;4.95;1.90;;;9.70;99.90;;;;;;5035282;28;20538;-66
2023/11/21 12:57:27;;;;;;;4.47;1.90;;;9.80;99.90;;;;;;5066663;28;20489;-66
2023/11/21 13:00:00;;;;;;;4.35;2.00;;;9.80;99.90;;;;;;5066211;28;20068;-66
2023/11/21 13:02:34;;;;;;;6.10;2.17;;;10.10;99.90;;;;;;5054146;28;20055;-67
2023/11/21 13:05:12;;;;;;;2.08;1.33;;;10.30;99.90;;;;;;5049228;28;20040;-67
2023/11/21 13:07:48;;;;;;;2.72;1.40;;;10.50;99.90;;;;;;5050959;28;20041;-67
2023/11/21 13:10:29;;;;;;;2.50;1.48;;;10.70;99.90;;;;;;5050314;28;20049;-67
2023/11/21 13:13:05;;;;;;;2.83;1.45;;;10.80;99.90;;;;;;5048517;28;20609;-66
2023/11/21 13:15:42;;;;;;;3.28;1.40;;;10.90;99.90;;;;;;5050829;28;20044;-66
2023/11/21 13:18:11;;;;;;;4.00;1.67;;;10.90;99.90;;;;;;5041574;28;20064;-66
2023/11/21 13:20:43;;;;;;;2.53;1.42;;;10.90;99.90;;;;;;5046267;28;20041;-67
2023/11/21 13:23:16;;;;;;;3.67;1.50;;;10.80;99.90;;;;;;5049544;28;20132;-68
2023/11/21 13:25:48;;;;;;;3.70;1.70;;;10.70;99.90;;;;;;5044138;28;20045;-66
2023/11/21 13:28:21;;;;;;;3.70;1.65;;;10.50;99.90;;;;;;5056148;28;20036;-67